CheckWX is a tool to help pilots better visualize weather data.  It is not intended as a substitute for an official pre-flight weather briefing.

22:33:42 UTC

OEDF METAR
King Fahd International Airport
Ad Dammam, Saudi Arabia
Current

34 mins ago

OEDF 202200Z 29004KT CAVOK 29/18 Q0999 NOSIG
Observed
Jul-20 @ 22:00 UTC
Wind
  • 290° at 4 KTS
Visibility
10,000+ meters
Flight Rules
VFR
Cloud Levels
  • Clear skies
Temperature
29°C / 84°F
Dewpoint
18°C / 64°F
Heat Index
29°C / 85°F
Humidity
51%
Altimeter
29.5" Hg
Pressure
998.92 hPa
Previous

2 hours ago

OEDF 202100Z 00000KT CAVOK 30/18 Q0999 NOSIG
Observed
Jul-20 @ 21:00 UTC
Visibility
10,000+ meters
Flight Rules
VFR
Cloud Levels
  • Clear skies
Temperature
30°C / 86°F
Dewpoint
18°C / 64°F
Heat Index
31°C / 88°F
Humidity
49%
Altimeter
29.5" Hg
Pressure
998.92 hPa
Previous

3 hours ago

OEDF 202000Z 00000KT CAVOK 30/19 Q0999 NOSIG
Observed
Jul-20 @ 20:00 UTC
Visibility
10,000+ meters
Flight Rules
VFR
Cloud Levels
  • Clear skies
Temperature
30°C / 86°F
Dewpoint
19°C / 66°F
Heat Index
31°C / 88°F
Humidity
52%
Altimeter
29.5" Hg
Pressure
998.92 hPa